sensor_id;sensor_type;location;lat;lon;timestamp;pressure;altitude;pressure_sealevel;temperature;humidity
57374;BME280;43964;53.890;25.340;2023-05-25T00:01:55;1025.1;;;17.1;48.1
57374;BME280;43964;53.890;25.340;2023-05-25T00:06:49;1025.2;;;17.1;48.2
57374;BME280;43964;53.890;25.340;2023-05-25T00:11:43;1025.1;;;17;48.4
57374;BME280;43964;53.890;25.340;2023-05-25T00:17:04;1025.2;;;17;48.7
57374;BME280;43964;53.890;25.340;2023-05-25T00:22:01;1025.2;;;16.9;49
57374;BME280;43964;53.890;25.340;2023-05-25T00:27:07;1025.2;;;16.8;49.3
57374;BME280;43964;53.890;25.340;2023-05-25T00:32:15;1025.2;;;16.8;49.4
57374;BME280;43964;53.890;25.340;2023-05-25T00:36:55;1025.2;;;16.8;49.5
57374;BME280;43964;53.890;25.340;2023-05-25T00:42:03;1025.2;;;16.7;49.5
57374;BME280;43964;53.890;25.340;2023-05-25T00:47:03;1025.2;;;16.8;49.5
57374;BME280;43964;53.890;25.340;2023-05-25T00:51:43;1025.2;;;16.8;49.6
57374;BME280;43964;53.890;25.340;2023-05-25T00:57:15;1025.2;;;16.8;49.6
57374;BME280;43964;53.890;25.340;2023-05-25T01:02:03;1025.2;;;16.7;49.7
57374;BME280;43964;53.890;25.340;2023-05-25T01:07:17;1025.2;;;16.6;50.1
57374;BME280;43964;53.890;25.340;2023-05-25T01:12:17;1025.1;;;16.6;50.5
57374;BME280;43964;53.890;25.340;2023-05-25T01:16:43;1025.1;;;16.6;50.7
57374;BME280;43964;53.890;25.340;2023-05-25T01:21:46;1025.1;;;16.6;50.8
57374;BME280;43964;53.890;25.340;2023-05-25T01:26:34;1025.1;;;16.7;50.9
57374;BME280;43964;53.890;25.340;2023-05-25T01:31:39;1025.1;;;16.7;51
57374;BME280;43964;53.890;25.340;2023-05-25T01:37:16;1025.1;;;16.7;50.9
57374;BME280;43964;53.890;25.340;2023-05-25T01:41:55;1025;;;16.7;50.9
57374;BME280;43964;53.890;25.340;2023-05-25T01:47:19;1025;;;16.7;51
57374;BME280;43964;53.890;25.340;2023-05-25T01:52:17;1025.1;;;16.6;51
57374;BME280;43964;53.890;25.340;2023-05-25T01:56:57;1025.1;;;16.5;51.1
57374;BME280;43964;53.890;25.340;2023-05-25T02:01:39;1025;;;16.4;51.3
57374;BME280;43964;53.890;25.340;2023-05-25T02:06:41;1025.1;;;16.4;51.6
57374;BME280;43964;53.890;25.340;2023-05-25T02:12:17;1025.1;;;16.3;51.7
57374;BME280;43964;53.890;25.340;2023-05-25T02:16:33;1025.1;;;16.4;51.7
57374;BME280;43964;53.890;25.340;2023-05-25T02:22:03;1025.2;;;16.4;51.6
57374;BME280;43964;53.890;25.340;2023-05-25T02:26:33;1025.2;;;16.4;51.5
57374;BME280;43964;53.890;25.340;2023-05-25T02:31:49;1025.2;;;16.6;51.2
57374;BME280;43964;53.890;25.340;2023-05-25T02:36:51;1025.2;;;17.4;50.5
57374;BME280;43964;53.890;25.340;2023-05-25T02:41:43;1025.2;;;18.9;48.8
57374;BME280;43964;53.890;25.340;2023-05-25T02:46:35;1025.1;;;20.3;47.2
57374;BME280;43964;53.890;25.340;2023-05-25T02:51:55;1025.2;;;21.6;45.7
57374;BME280;43964;53.890;25.340;2023-05-25T02:57:09;1025.1;;;22.7;44
57374;BME280;43964;53.890;25.340;2023-05-25T03:01:45;1025.1;;;24.2;41.1
57374;BME280;43964;53.890;25.340;2023-05-25T03:06:33;1025.1;;;25.7;38.8
57374;BME280;43964;53.890;25.340;2023-05-25T03:12:17;1025.1;;;27.1;36.7
57374;BME280;43964;53.890;25.340;2023-05-25T03:17:17;1025.1;;;28.1;35.4
57374;BME280;43964;53.890;25.340;2023-05-25T03:21:43;1025.1;;;27.1;36.2
57374;BME280;43964;53.890;25.340;2023-05-25T03:27:17;1025.2;;;25.4;37.7
57374;BME280;43964;53.890;25.340;2023-05-25T03:31:59;1025.2;;;26.4;36.4
57374;BME280;43964;53.890;25.340;2023-05-25T03:37:17;1025.2;;;29.2;33.6
57374;BME280;43964;53.890;25.340;2023-05-25T03:41:51;1025.2;;;30.4;32.4
57374;BME280;43964;53.890;25.340;2023-05-25T03:46:55;1025.2;;;30.9;31.8
57374;BME280;43964;53.890;25.340;2023-05-25T03:51:53;1025.2;;;32.9;28.9
57374;BME280;43964;53.890;25.340;2023-05-25T03:56:33;1025.2;;;34.2;26.8
57374;BME280;43964;53.890;25.340;2023-05-25T04:02:09;1025.2;;;35.3;25.6
57374;BME280;43964;53.890;25.340;2023-05-25T04:07:07;1025.3;;;34.2;26.5
57374;BME280;43964;53.890;25.340;2023-05-25T04:12:05;1025.4;;;31.7;28.2
57374;BME280;43964;53.890;25.340;2023-05-25T04:17:05;1025.5;;;29.2;29.9
57374;BME280;43964;53.890;25.340;2023-05-25T04:21:55;1025.6;;;27.3;31.4
57374;BME280;43964;53.890;25.340;2023-05-25T04:26:45;1025.6;;;25.8;32.5
57374;BME280;43964;53.890;25.340;2023-05-25T04:32:19;1025.7;;;25.6;32.7
57374;BME280;43964;53.890;25.340;2023-05-25T04:37:05;1025.6;;;29.5;29.8
57374;BME280;43964;53.890;25.340;2023-05-25T04:42:09;1025.6;;;35;26.2
57374;BME280;43964;53.890;25.340;2023-05-25T04:46:45;1025.5;;;38.1;23.9
57374;BME280;43964;53.890;25.340;2023-05-25T04:51:55;1025.4;;;40.5;21.2
57374;BME280;43964;53.890;25.340;2023-05-25T04:56:45;1025.5;;;42.4;19.6
57374;BME280;43964;53.890;25.340;2023-05-25T05:01:51;1025.6;;;44.3;17.9
57374;BME280;43964;53.890;25.340;2023-05-25T05:06:45;1025.6;;;45.9;16.4
57374;BME280;43964;53.890;25.340;2023-05-25T05:12:17;1025.6;;;47;15.3
57374;BME280;43964;53.890;25.340;2023-05-25T05:16:45;1025.7;;;48.3;14.8
57374;BME280;43964;53.890;25.340;2023-05-25T05:22:17;1025.7;;;49.1;14.3
57374;BME280;43964;53.890;25.340;2023-05-25T05:26:35;1025.7;;;49.6;13.7
57374;BME280;43964;53.890;25.340;2023-05-25T05:31:57;1025.6;;;49.3;13.4
57374;BME280;43964;53.890;25.340;2023-05-25T05:36:33;1025.7;;;45.6;15
57374;BME280;43964;53.890;25.340;2023-05-25T05:42:17;1025.7;;;42.1;16.9
57374;BME280;43964;53.890;25.340;2023-05-25T05:47:17;1025.7;;;39.2;18.5
57374;BME280;43964;53.890;25.340;2023-05-25T05:51:33;1025.7;;;37.3;19.5
57374;BME280;43964;53.890;25.340;2023-05-25T05:57:17;1025.7;;;35.7;20.6
57374;BME280;43964;53.890;25.340;2023-05-25T06:01:47;1025.8;;;34.4;21.8
57374;BME280;43964;53.890;25.340;2023-05-25T06:06:45;1025.8;;;33.6;22.8
57374;BME280;43964;53.890;25.340;2023-05-25T06:11:52;1025.8;;;33.1;23.3
57374;BME280;43964;53.890;25.340;2023-05-25T06:16:33;1025.8;;;32.7;23.6
57374;BME280;43964;53.890;25.340;2023-05-25T06:22:05;1025.7;;;32.5;23.9
57374;BME280;43964;53.890;25.340;2023-05-25T06:26:33;1025.7;;;32.2;24.2
57374;BME280;43964;53.890;25.340;2023-05-25T06:32:09;1025.7;;;32;24.4
57374;BME280;43964;53.890;25.340;2023-05-25T06:37:17;1025.7;;;31.9;24.5
57374;BME280;43964;53.890;25.340;2023-05-25T06:41:33;1025.6;;;32;24.8
57374;BME280;43964;53.890;25.340;2023-05-25T06:47:05;1025.7;;;32.2;25.1
57374;BME280;43964;53.890;25.340;2023-05-25T06:51:43;1025.7;;;32.2;25.1
57374;BME280;43964;53.890;25.340;2023-05-25T06:56:45;1025.6;;;32.3;25.1
57374;BME280;43964;53.890;25.340;2023-05-25T07:02:17;1025.6;;;32.3;25.2
57374;BME280;43964;53.890;25.340;2023-05-25T07:06:55;1025.6;;;32.3;25.2
57374;BME280;43964;53.890;25.340;2023-05-25T07:12:19;1025.6;;;32.5;25.4
57374;BME280;43964;53.890;25.340;2023-05-25T07:17:07;1025.6;;;32.4;26
57374;BME280;43964;53.890;25.340;2023-05-25T07:21:55;1025.6;;;32.4;26.2
57374;BME280;43964;53.890;25.340;2023-05-25T07:26:57;1025.6;;;32.5;25.8
57374;BME280;43964;53.890;25.340;2023-05-25T07:31:33;1025.5;;;32.6;25.7
57374;BME280;43964;53.890;25.340;2023-05-25T07:36:33;1025.5;;;32.8;25.6
57374;BME280;43964;53.890;25.340;2023-05-25T07:42:17;1025.5;;;32.7;25.5
57374;BME280;43964;53.890;25.340;2023-05-25T07:46:45;1025.5;;;32.8;25.5
57374;BME280;43964;53.890;25.340;2023-05-25T07:52:17;1025.5;;;32.8;25.3
57374;BME280;43964;53.890;25.340;2023-05-25T07:57:19;1025.5;;;32.8;25.1
57374;BME280;43964;53.890;25.340;2023-05-25T08:01:57;1025.5;;;32.8;25.1
57374;BME280;43964;53.890;25.340;2023-05-25T08:06:33;1025.4;;;32.9;24.7
57374;BME280;43964;53.890;25.340;2023-05-25T08:12:03;1025.4;;;32.9;24.6
57374;BME280;43964;53.890;25.340;2023-05-25T08:17:17;1025.3;;;32.9;24.3
57374;BME280;43964;53.890;25.340;2023-05-25T08:21:33;1025.3;;;32.7;23.9
57374;BME280;43964;53.890;25.340;2023-05-25T08:27:03;1025.3;;;32.7;23.9
57374;BME280;43964;53.890;25.340;2023-05-25T08:31:33;1025.3;;;32.8;23.8
57374;BME280;43964;53.890;25.340;2023-05-25T08:36:33;1025.2;;;32.9;23.6
57374;BME280;43964;53.890;25.340;2023-05-25T08:41:51;1025.3;;;32.5;23.6
57374;BME280;43964;53.890;25.340;2023-05-25T08:46:55;1025.2;;;31.9;23.4
57374;BME280;43964;53.890;25.340;2023-05-25T08:52:19;1025.2;;;31.6;23.3
57374;BME280;43964;53.890;25.340;2023-05-25T08:57:04;1025.2;;;31.7;23.4
57374;BME280;43964;53.890;25.340;2023-05-25T09:02:13;1025.2;;;31.6;23.5
57374;BME280;43964;53.890;25.340;2023-05-25T09:07:15;1025.2;;;31.7;23.5
57374;BME280;43964;53.890;25.340;2023-05-25T09:11:33;1025.2;;;32.1;23
57374;BME280;43964;53.890;25.340;2023-05-25T09:17:03;1025.2;;;32.4;22.6
57374;BME280;43964;53.890;25.340;2023-05-25T09:22:05;1025.3;;;32.5;22.2
57374;BME280;43964;53.890;25.340;2023-05-25T09:26:39;1025.2;;;32.6;21.6
57374;BME280;43964;53.890;25.340;2023-05-25T09:32:03;1025.2;;;32.5;21.6
57374;BME280;43964;53.890;25.340;2023-05-25T09:36:51;1025.2;;;32.4;21.7
57374;BME280;43964;53.890;25.340;2023-05-25T09:42:17;1025.3;;;32;22.1
57374;BME280;43964;53.890;25.340;2023-05-25T09:47:05;1025.3;;;31.9;22.3
57374;BME280;43964;53.890;25.340;2023-05-25T09:51:43;1025.3;;;31.8;22.3
57374;BME280;43964;53.890;25.340;2023-05-25T09:56:58;1025.3;;;31.7;22.2
57374;BME280;43964;53.890;25.340;2023-05-25T10:01:33;1025.3;;;32.1;22.1
57374;BME280;43964;53.890;25.340;2023-05-25T10:06:45;1025.3;;;32.6;22.1
57374;BME280;43964;53.890;25.340;2023-05-25T10:12:18;1025.2;;;33;21.8
57374;BME280;43964;53.890;25.340;2023-05-25T10:16:43;1025.2;;;33.2;21.6
57374;BME280;43964;53.890;25.340;2023-05-25T10:22:18;1025.2;;;33.4;21.5
57374;BME280;43964;53.890;25.340;2023-05-25T10:27:18;1025.1;;;33.5;20.9
57374;BME280;43964;53.890;25.340;2023-05-25T10:31:45;1025.1;;;33.5;20.9
57374;BME280;43964;53.890;25.340;2023-05-25T10:37:07;1025.1;;;33.6;21
57374;BME280;43964;53.890;25.340;2023-05-25T10:42:03;1025;;;33.6;20.7
57374;BME280;43964;53.890;25.340;2023-05-25T10:47:19;1025;;;33.8;20.4
57374;BME280;43964;53.890;25.340;2023-05-25T10:51:37;1025;;;33.8;20.3
57374;BME280;43964;53.890;25.340;2023-05-25T10:57:07;1025;;;33.4;20.3
57374;BME280;43964;53.890;25.340;2023-05-25T11:01:33;1025;;;33;20.3
57374;BME280;43964;53.890;25.340;2023-05-25T11:07:17;1025;;;32.8;20.7
57374;BME280;43964;53.890;25.340;2023-05-25T11:12:19;1025;;;32.6;21
57374;BME280;43964;53.890;25.340;2023-05-25T11:17:03;1025;;;32.3;21.5
57374;BME280;43964;53.890;25.340;2023-05-25T11:22:11;1025;;;32;21.8
57374;BME280;43964;53.890;25.340;2023-05-25T11:27:03;1025;;;32;21.9
57374;BME280;43964;53.890;25.340;2023-05-25T11:32:15;1025;;;31.7;22.1
57374;BME280;43964;53.890;25.340;2023-05-25T11:37:05;1025;;;31.6;22.3
57374;BME280;43964;53.890;25.340;2023-05-25T11:41:45;1025;;;31.6;22.5
57374;BME280;43964;53.890;25.340;2023-05-25T11:47:20;1025;;;31.5;22.6
57374;BME280;43964;53.890;25.340;2023-05-25T11:52:18;1024.9;;;31.6;22.6
57374;BME280;43964;53.890;25.340;2023-05-25T11:56:43;1024.9;;;31.8;22.6
57374;BME280;43964;53.890;25.340;2023-05-25T12:02:18;1024.9;;;32;22.6
57374;BME280;43964;53.890;25.340;2023-05-25T12:07:09;1024.9;;;32.1;22.6
57374;BME280;43964;53.890;25.340;2023-05-25T12:11:45;1024.9;;;32.2;22.4
57374;BME280;43964;53.890;25.340;2023-05-25T12:16:51;1024.9;;;32.1;22.3
57374;BME280;43964;53.890;25.340;2023-05-25T12:21:41;1024.9;;;32.3;22.2
57374;BME280;43964;53.890;25.340;2023-05-25T12:27:03;1024.9;;;32.6;22.2
57374;BME280;43964;53.890;25.340;2023-05-25T12:31:45;1024.8;;;32.8;22.2
57374;BME280;43964;53.890;25.340;2023-05-25T12:37:19;1024.7;;;32.9;22.2
57374;BME280;43964;53.890;25.340;2023-05-25T12:42:17;1024.7;;;32.9;21.9
57374;BME280;43964;53.890;25.340;2023-05-25T12:47:16;1024.7;;;32.4;22.1
57374;BME280;43964;53.890;25.340;2023-05-25T12:52:04;1024.7;;;32.1;21.9
57374;BME280;43964;53.890;25.340;2023-05-25T12:57:10;1024.6;;;32;22
57374;BME280;43964;53.890;25.340;2023-05-25T13:01:33;1024.6;;;31.7;22.2
57374;BME280;43964;53.890;25.340;2023-05-25T13:07:15;1024.6;;;31.4;22.6
57374;BME280;43964;53.890;25.340;2023-05-25T13:12:00;1024.5;;;31;22.6
57374;BME280;43964;53.890;25.340;2023-05-25T13:17:11;1024.5;;;30.9;22.7
57374;BME280;43964;53.890;25.340;2023-05-25T13:21:33;1024.4;;;31;22.9
57374;BME280;43964;53.890;25.340;2023-05-25T13:26:57;1024.4;;;30.9;23
57374;BME280;43964;53.890;25.340;2023-05-25T13:31:57;1024.4;;;30.8;23.1
57374;BME280;43964;53.890;25.340;2023-05-25T13:36:45;1024.4;;;30.8;23.3
57374;BME280;43964;53.890;25.340;2023-05-25T13:41:53;1024.3;;;31;23.3
57374;BME280;43964;53.890;25.340;2023-05-25T13:47:21;1024.3;;;31.3;23.1
57374;BME280;43964;53.890;25.340;2023-05-25T13:51:45;1024.3;;;31.7;22.8
57374;BME280;43964;53.890;25.340;2023-05-25T13:57:21;1024.2;;;32.1;22.4
57374;BME280;43964;53.890;25.340;2023-05-25T14:02:11;1024.2;;;32.3;22
57374;BME280;43964;53.890;25.340;2023-05-25T14:06:33;1024.2;;;32.4;22.1
57374;BME280;43964;53.890;25.340;2023-05-25T14:11:57;1024.1;;;32.3;22.2
57374;BME280;43964;53.890;25.340;2023-05-25T14:17:05;1024.1;;;31.9;22.4
57374;BME280;43964;53.890;25.340;2023-05-25T14:22:19;1024.2;;;31.5;22.7
57374;BME280;43964;53.890;25.340;2023-05-25T14:26:43;1024.2;;;31.1;22.9
57374;BME280;43964;53.890;25.340;2023-05-25T14:32:19;1024.2;;;30.9;23.1
57374;BME280;43964;53.890;25.340;2023-05-25T14:36:35;1024.2;;;30.4;23.4
57374;BME280;43964;53.890;25.340;2023-05-25T14:41:33;1024.2;;;30.3;23.6
57374;BME280;43964;53.890;25.340;2023-05-25T14:46:51;1024.2;;;30.3;23.8
57374;BME280;43964;53.890;25.340;2023-05-25T14:51:33;1024.1;;;30.5;24.2
57374;BME280;43964;53.890;25.340;2023-05-25T14:57:19;1024.2;;;30.5;24.5
57374;BME280;43964;53.890;25.340;2023-05-25T15:01:53;1024.2;;;30.4;24.9
57374;BME280;43964;53.890;25.340;2023-05-25T15:07:11;1024.2;;;30.5;25
57374;BME280;43964;53.890;25.340;2023-05-25T15:12:21;1024.2;;;30.7;25
57374;BME280;43964;53.890;25.340;2023-05-25T15:16:45;1024.2;;;30.6;25
57374;BME280;43964;53.890;25.340;2023-05-25T15:22:07;1024.2;;;30.4;25.2
57374;BME280;43964;53.890;25.340;2023-05-25T15:26:57;1024.2;;;30.1;25.5
57374;BME280;43964;53.890;25.340;2023-05-25T15:31:47;1024.2;;;29.7;25.8
57374;BME280;43964;53.890;25.340;2023-05-25T15:37:19;1024.2;;;29.3;26.3
57374;BME280;43964;53.890;25.340;2023-05-25T15:42:05;1024.2;;;29;26.6
57374;BME280;43964;53.890;25.340;2023-05-25T15:47:11;1024.2;;;28.8;27
57374;BME280;43964;53.890;25.340;2023-05-25T15:51:33;1024.2;;;28.7;27.3
57374;BME280;43964;53.890;25.340;2023-05-25T15:56:57;1024.2;;;28.5;27.6
57374;BME280;43964;53.890;25.340;2023-05-25T16:01:57;1024.2;;;28.4;27.9
57374;BME280;43964;53.890;25.340;2023-05-25T16:06:39;1024.2;;;28.2;28.2
57374;BME280;43964;53.890;25.340;2023-05-25T16:11:51;1024.2;;;28;28.5
57374;BME280;43964;53.890;25.340;2023-05-25T16:17:19;1024.2;;;27.8;28.6
57374;BME280;43964;53.890;25.340;2023-05-25T16:21:45;1024.2;;;27.7;28.7
57374;BME280;43964;53.890;25.340;2023-05-25T16:27:19;1024.3;;;27.5;28.8
57374;BME280;43964;53.890;25.340;2023-05-25T16:32:19;1024.3;;;27.4;29
57374;BME280;43964;53.890;25.340;2023-05-25T16:36:45;1024.3;;;27.4;29.1
57374;BME280;43964;53.890;25.340;2023-05-25T16:41:59;1024.3;;;27.3;29.3
57374;BME280;43964;53.890;25.340;2023-05-25T16:47:05;1024.2;;;27.2;29.7
57374;BME280;43964;53.890;25.340;2023-05-25T16:52:19;1024.2;;;27.1;29.9
57374;BME280;43964;53.890;25.340;2023-05-25T16:56:33;1024.2;;;27.1;30
57374;BME280;43964;53.890;25.340;2023-05-25T17:02:19;1024.2;;;27.2;30
57374;BME280;43964;53.890;25.340;2023-05-25T17:06:57;1024.2;;;27.2;30.1
57374;BME280;43964;53.890;25.340;2023-05-25T17:12:11;1024.2;;;27.1;30.1
57374;BME280;43964;53.890;25.340;2023-05-25T17:17:05;1024.2;;;27;30.3
57374;BME280;43964;53.890;25.340;2023-05-25T17:21:57;1024.2;;;26.9;30.5
57374;BME280;43964;53.890;25.340;2023-05-25T17:27:19;1024.2;;;26.8;30.6
57374;BME280;43964;53.890;25.340;2023-05-25T17:32:05;1024.1;;;26.7;31.1
57374;BME280;43964;53.890;25.340;2023-05-25T17:37:11;1024.2;;;26.6;31.4
57374;BME280;43964;53.890;25.340;2023-05-25T17:42:19;1024.2;;;26.4;31.6
57374;BME280;43964;53.890;25.340;2023-05-25T17:46:46;1024.3;;;26.2;31.9
57374;BME280;43964;53.890;25.340;2023-05-25T17:52:05;1024.4;;;26;32.1
57374;BME280;43964;53.890;25.340;2023-05-25T17:57:05;1024.5;;;25.7;32.4
57374;BME280;43964;53.890;25.340;2023-05-25T18:01:33;1024.5;;;25.3;32.7
57374;BME280;43964;53.890;25.340;2023-05-25T18:07:17;1024.5;;;25.1;33
57374;BME280;43964;53.890;25.340;2023-05-25T18:12:06;1024.5;;;24.9;33.3
57374;BME280;43964;53.890;25.340;2023-05-25T18:17:17;1024.5;;;24.6;33.7
57374;BME280;43964;53.890;25.340;2023-05-25T18:22:05;1024.5;;;24.4;34.2
57374;BME280;43964;53.890;25.340;2023-05-25T18:27:11;1024.5;;;24.1;35
57374;BME280;43964;53.890;25.340;2023-05-25T18:31:57;1024.6;;;23.8;35.6
57374;BME280;43964;53.890;25.340;2023-05-25T18:36:33;1024.6;;;23.6;36.1
57374;BME280;43964;53.890;25.340;2023-05-25T18:41:33;1024.6;;;23.3;36.6
57374;BME280;43964;53.890;25.340;2023-05-25T18:47:19;1024.6;;;23.1;37
57374;BME280;43964;53.890;25.340;2023-05-25T18:51:33;1024.6;;;23;37.1
57374;BME280;43964;53.890;25.340;2023-05-25T18:57:19;1024.7;;;22.9;37.4
57374;BME280;43964;53.890;25.340;2023-05-25T19:02:19;1024.7;;;22.7;37.7
57374;BME280;43964;53.890;25.340;2023-05-25T19:06:45;1024.7;;;22.6;38
57374;BME280;43964;53.890;25.340;2023-05-25T19:11:33;1024.7;;;22.5;38.3
57374;BME280;43964;53.890;25.340;2023-05-25T19:16:53;1024.8;;;22.3;38.6
57374;BME280;43964;53.890;25.340;2023-05-25T19:22:17;1024.7;;;22.2;39.4
57374;BME280;43964;53.890;25.340;2023-05-25T19:26:33;1024.7;;;22;40.1
57374;BME280;43964;53.890;25.340;2023-05-25T19:32:05;1024.8;;;21.8;40.5
57374;BME280;43964;53.890;25.340;2023-05-25T19:36:57;1024.9;;;21.7;40.8
57374;BME280;43964;53.890;25.340;2023-05-25T19:41:33;1024.9;;;21.6;41
57374;BME280;43964;53.890;25.340;2023-05-25T19:46:51;1024.9;;;21.5;41.3
57374;BME280;43964;53.890;25.340;2023-05-25T19:51:33;1024.9;;;21.4;41.3
57374;BME280;43964;53.890;25.340;2023-05-25T19:57:06;1024.9;;;21.3;41.5
57374;BME280;43964;53.890;25.340;2023-05-25T20:02:06;1025;;;21.2;41.7
57374;BME280;43964;53.890;25.340;2023-05-25T20:07:11;1025;;;21.1;41.8
57374;BME280;43964;53.890;25.340;2023-05-25T20:12:17;1025.1;;;21.1;42
57374;BME280;43964;53.890;25.340;2023-05-25T20:16:33;1025.1;;;21.1;42.1
57374;BME280;43964;53.890;25.340;2023-05-25T20:22:19;1025.1;;;21.1;42.7
57374;BME280;43964;53.890;25.340;2023-05-25T20:27:05;1025;;;21.1;43
57374;BME280;43964;53.890;25.340;2023-05-25T20:31:33;1025;;;21.2;43.1
57374;BME280;43964;53.890;25.340;2023-05-25T20:37:21;1025.1;;;21.2;43.2
57374;BME280;43964;53.890;25.340;2023-05-25T20:42:07;1025.1;;;21.3;43.3
57374;BME280;43964;53.890;25.340;2023-05-25T20:47:21;1025.1;;;21.3;43.2
57374;BME280;43964;53.890;25.340;2023-05-25T20:51:59;1025.1;;;21.3;43
57374;BME280;43964;53.890;25.340;2023-05-25T20:56:33;1025.1;;;21.4;42.9
57374;BME280;43964;53.890;25.340;2023-05-25T21:01:57;1025.2;;;21.4;43
57374;BME280;43964;53.890;25.340;2023-05-25T21:06:33;1025.3;;;21.4;43.1
57374;BME280;43964;53.890;25.340;2023-05-25T21:11:40;1025.3;;;21.4;43.1
57374;BME280;43964;53.890;25.340;2023-05-25T21:17:20;1025.3;;;21.4;43.1
57374;BME280;43964;53.890;25.340;2023-05-25T21:21:46;1025.3;;;21.3;43.4
57374;BME280;43964;53.890;25.340;2023-05-25T21:27:20;1025.3;;;21.2;43.5
57374;BME280;43964;53.890;25.340;2023-05-25T21:32:20;1025.3;;;21.1;43.7
57374;BME280;43964;53.890;25.340;2023-05-25T21:36:58;1025.2;;;21.1;43.8
57374;BME280;43964;53.890;25.340;2023-05-25T21:41:34;1025.2;;;21;44
57374;BME280;43964;53.890;25.340;2023-05-25T21:47:04;1025.2;;;20.9;44.3
57374;BME280;43964;53.890;25.340;2023-05-25T21:52:18;1025.1;;;20.8;44.5
57374;BME280;43964;53.890;25.340;2023-05-25T21:56:34;1025.2;;;20.7;45.2
57374;BME280;43964;53.890;25.340;2023-05-25T22:02:06;1025.3;;;20.6;45.8
57374;BME280;43964;53.890;25.340;2023-05-25T22:06:34;1025.3;;;20.5;46
57374;BME280;43964;53.890;25.340;2023-05-25T22:11:44;1025.3;;;20.4;46.3
57374;BME280;43964;53.890;25.340;2023-05-25T22:16:44;1025.3;;;20.3;46.6
57374;BME280;43964;53.890;25.340;2023-05-25T22:21:46;1025.4;;;20.3;46.4
57374;BME280;43964;53.890;25.340;2023-05-25T22:27:04;1025.4;;;20.2;46.5
57374;BME280;43964;53.890;25.340;2023-05-25T22:32:06;1025.5;;;20.2;46.6
57374;BME280;43964;53.890;25.340;2023-05-25T22:37:10;1025.4;;;20.1;46.7
57374;BME280;43964;53.890;25.340;2023-05-25T22:42:20;1025.4;;;20;46.8
57374;BME280;43964;53.890;25.340;2023-05-25T22:46:44;1025.4;;;19.9;47.2
57374;BME280;43964;53.890;25.340;2023-05-25T22:52:06;1025.4;;;19.8;47.9
57374;BME280;43964;53.890;25.340;2023-05-25T22:57:06;1025.4;;;19.7;48.2
57374;BME280;43964;53.890;25.340;2023-05-25T23:01:34;1025.4;;;19.6;48.5
57374;BME280;43964;53.890;25.340;2023-05-25T23:07:18;1025.4;;;19.5;48.8
57374;BME280;43964;53.890;25.340;2023-05-25T23:12:04;1025.4;;;19.5;49.1
57374;BME280;43964;53.890;25.340;2023-05-25T23:17:18;1025.4;;;19.4;49.4
57374;BME280;43964;53.890;25.340;2023-05-25T23:22:04;1025.4;;;19.3;49.7
57374;BME280;43964;53.890;25.340;2023-05-25T23:26:34;1025.4;;;19.3;49.7
57374;BME280;43964;53.890;25.340;2023-05-25T23:31:44;1025.4;;;19.2;49.9
57374;BME280;43964;53.890;25.340;2023-05-25T23:36:34;1025.4;;;19.1;49.9
57374;BME280;43964;53.890;25.340;2023-05-25T23:41:44;1025.4;;;19.1;50.3
57374;BME280;43964;53.890;25.340;2023-05-25T23:47:16;1025.5;;;19;50.6
57374;BME280;43964;53.890;25.340;2023-05-25T23:51:34;1025.5;;;19;50.6
57374;BME280;43964;53.890;25.340;2023-05-25T23:57:18;1025.5;;;18.9;50.7
